Terminal Aerodrome Forecast
Issued by NWS Lake Charles, LA

Home | Current Version | Previous Version | Text Only | Print | Product List | Glossary On
Versions: 1 2 3 4 5 6 7 8 9 10 11 12 13 14 15 16
227
FTUS44 KLCH 131120
TAFLFT
TAF
KLFT 131120Z 1312/1412 06004KT P6SM SCT050
     FM131600 05008KT P6SM SCT050
     FM132000 08010KT P6SM SCT050
     FM140000 11006KT P6SM SCT050=

USA.gov is the U.S. government's official web portal to all federal, state and local government web resources and services.